Time;durP1;ratioP1;P1;durP2;ratioP2;P2;SDS_P1;SDS_P2;PMS_P1;PMS_P2;Temp;Humidity;BMP_temperature;BMP_pressure;BME280_temperature;BME280_humidity;BME280_pressure;Samples;Min_cycle;Max_cycle;Signal;HPM_P1;HPM_P2
2021/05/14 00:02:04;;;;;;;14.18;12.82;;;13.40;99.80;;;;;;5064553;28;20093;-82
2021/05/14 00:04:30;;;;;;;14.75;13.18;;;13.40;99.80;;;;;;5073964;28;20077;-83
2021/05/14 00:06:56;;;;;;;17.33;15.02;;;13.40;99.80;;;;;;5092190;28;20016;-82
2021/05/14 00:09:21;;;;;;;16.48;14.75;;;13.30;99.90;;;;;;5074190;28;20393;-82
2021/05/14 00:11:47;;;;;;;17.20;15.40;;;13.30;99.90;;;;;;5054070;28;20409;-82
2021/05/14 00:14:13;;;;;;;16.63;15.02;;;13.30;99.90;;;;;;5057349;28;20028;-82
2021/05/14 00:16:39;;;;;;;18.65;16.70;;;13.30;99.90;;;;;;5074043;28;20059;-83
2021/05/14 00:19:06;;;;;;;19.10;17.10;;;13.30;99.90;;;;;;5057307;28;20591;-82
2021/05/14 00:21:32;;;;;;;18.60;16.80;;;13.40;99.90;;;;;;5074081;28;20054;-82
2021/05/14 00:23:58;;;;;;;19.92;17.15;;;13.40;99.90;;;;;;5057380;28;20088;-83
2021/05/14 00:26:24;;;;;;;19.95;17.85;;;13.40;99.90;;;;;;5055899;28;20548;-83
2021/05/14 00:28:50;;;;;;;19.17;17.17;;;13.40;99.90;;;;;;5078138;28;20020;-82
2021/05/14 00:31:17;;;;;;;20.05;17.90;;;13.40;99.90;;;;;;5077965;28;20111;-83
2021/05/14 00:33:43;;;;;;;22.25;19.80;;;13.50;99.90;;;;;;5077766;28;20066;-82
2021/05/14 00:36:09;;;;;;;21.02;18.73;;;13.50;99.90;;;;;;5096025;28;20470;-82
2021/05/14 00:38:35;;;;;;;20.80;18.60;;;13.40;99.90;;;;;;5043172;28;20082;-82
2021/05/14 00:41:01;;;;;;;20.60;18.35;;;13.50;99.90;;;;;;5077688;28;20467;-82
2021/05/14 00:43:27;;;;;;;19.58;17.55;;;13.50;99.90;;;;;;5095874;28;20062;-82
2021/05/14 00:45:53;;;;;;;19.65;17.55;;;13.50;99.90;;;;;;5077413;28;20036;-82
2021/05/14 00:48:18;;;;;;;18.80;16.90;;;13.40;99.90;;;;;;5077486;28;20031;-82
2021/05/14 00:50:44;;;;;;;18.48;16.58;;;13.40;99.90;;;;;;5077394;28;20051;-82
2021/05/14 00:53:11;;;;;;;20.13;18.02;;;13.40;99.90;;;;;;5061015;28;20133;-82
2021/05/14 00:55:37;;;;;;;21.30;18.70;;;13.40;99.90;;;;;;5043279;28;20025;-83
2021/05/14 00:58:02;;;;;;;21.73;19.10;;;13.40;99.90;;;;;;5057341;28;20028;-82
2021/05/14 01:01:12;;;;;;;20.55;18.45;;;13.30;99.90;;;;;;5076963;28;20174;-82
2021/05/14 01:03:37;;;;;;;24.20;20.50;;;13.30;99.90;;;;;;5095360;28;20153;-82
2021/05/14 01:06:03;;;;;;;22.95;20.33;;;13.20;99.90;;;;;;5095098;28;20460;-83
2021/05/14 01:08:29;;;;;;;23.23;20.42;;;13.20;99.90;;;;;;5077170;28;20032;-82
2021/05/14 01:10:55;;;;;;;24.77;21.77;;;13.10;99.90;;;;;;5095351;28;20024;-82
2021/05/14 01:13:25;;;;;;;24.70;20.70;;;13.10;99.90;;;;;;5077191;28;20012;-82
2021/05/14 01:15:50;;;;;;;23.30;20.80;;;13.10;99.90;;;;;;5077020;28;20020;-82
2021/05/14 01:18:16;;;;;;;25.23;20.80;;;13.00;99.90;;;;;;5077448;28;20034;-82
2021/05/14 01:20:41;;;;;;;23.10;20.02;;;13.00;99.90;;;;;;5040398;28;20036;-82
2021/05/14 01:23:07;;;;;;;24.02;20.20;;;13.00;99.90;;;;;;5077164;28;20066;-83
2021/05/14 01:25:33;;;;;;;25.45;21.58;;;13.00;99.90;;;;;;5060317;28;20614;-82
2021/05/14 01:27:58;;;;;;;24.92;21.38;;;13.00;99.90;;;;;;5060019;28;20024;-82
2021/05/14 01:30:24;;;;;;;27.20;23.10;;;13.00;99.90;;;;;;5076843;28;20485;-83
2021/05/14 01:32:50;;;;;;;27.48;24.20;;;13.00;99.90;;;;;;5075530;28;20073;-82
2021/05/14 01:35:15;;;;;;;29.38;26.15;;;13.00;99.90;;;;;;5076674;28;20031;-82
2021/05/14 01:37:41;;;;;;;28.42;24.60;;;13.10;99.90;;;;;;5039481;28;20044;-82
2021/05/14 01:40:07;;;;;;;28.67;25.58;;;13.10;99.90;;;;;;5091147;28;20431;-82
2021/05/14 01:42:33;;;;;;;31.17;26.73;;;13.10;99.90;;;;;;5059923;28;20637;-82
2021/05/14 01:44:59;;;;;;;31.63;26.33;;;13.10;99.90;;;;;;5076609;28;20034;-82
2021/05/14 01:47:25;;;;;;;29.88;26.48;;;13.10;99.90;;;;;;5059784;28;20039;-82
2021/05/14 01:49:50;;;;;;;32.03;27.60;;;13.20;99.90;;;;;;5039721;28;20373;-83
2021/05/14 01:52:16;;;;;;;31.40;26.55;;;13.20;99.90;;;;;;5051473;28;20032;-82
2021/05/14 01:54:41;;;;;;;31.25;27.58;;;13.20;99.90;;;;;;5076395;28;20062;-83
2021/05/14 01:57:07;;;;;;;32.80;28.13;;;13.20;99.90;;;;;;5056292;28;20149;-82
2021/05/14 01:59:32;;;;;;;35.60;29.38;;;13.20;99.90;;;;;;5059392;28;20082;-83
2021/05/14 02:01:58;;;;;;;34.28;29.55;;;13.20;99.90;;;;;;5059463;28;20085;-82
2021/05/14 02:04:24;;;;;;;33.38;28.35;;;13.20;99.90;;;;;;5076107;28;20107;-82
2021/05/14 02:06:49;;;;;;;32.20;27.98;;;13.20;99.90;;;;;;5055928;28;20355;-82
2021/05/14 02:09:15;;;;;;;31.55;27.05;;;13.10;99.90;;;;;;5084503;28;20367;-82
2021/05/14 02:11:41;;;;;;;34.00;28.85;;;13.10;99.90;;;;;;5059104;28;20024;-82
2021/05/14 02:14:06;;;;;;;34.10;28.52;;;13.10;99.90;;;;;;5059362;28;20523;-82
2021/05/14 02:16:32;;;;;;;34.60;27.80;;;13.10;99.90;;;;;;5059161;28;20066;-83
2021/05/14 02:18:57;;;;;;;32.10;27.52;;;13.10;99.90;;;;;;5076063;28;20397;-83
2021/05/14 02:21:23;;;;;;;35.35;28.98;;;13.00;99.90;;;;;;5059216;28;20028;-83
2021/05/14 02:23:49;;;;;;;32.78;28.15;;;13.00;99.90;;;;;;5093753;28;20508;-83
2021/05/14 02:26:14;;;;;;;31.33;26.05;;;12.90;99.90;;;;;;5055650;28;20058;-83
2021/05/14 02:28:40;;;;;;;33.55;27.38;;;12.90;99.90;;;;;;5041914;28;20060;-83
2021/05/14 02:31:05;;;;;;;31.42;27.65;;;12.90;99.90;;;;;;5075671;28;20032;-82
2021/05/14 02:33:32;;;;;;;30.73;26.23;;;12.90;99.90;;;;;;5058990;28;20473;-82
2021/05/14 02:35:58;;;;;;;33.03;27.45;;;12.90;99.90;;;;;;5075371;28;20023;-83
2021/05/14 02:38:23;;;;;;;34.58;28.48;;;12.90;99.90;;;;;;5075501;28;20040;-83
2021/05/14 02:40:49;;;;;;;36.00;29.42;;;12.90;99.90;;;;;;5058906;28;20031;-83
2021/05/14 02:43:16;;;;;;;33.25;27.55;;;12.90;99.90;;;;;;5055427;28;20383;-83
2021/05/14 02:45:42;;;;;;;34.72;28.70;;;12.90;99.90;;;;;;5070526;28;20039;-83
2021/05/14 02:48:08;;;;;;;35.42;28.83;;;12.90;99.90;;;;;;5093348;28;20069;-83
2021/05/14 02:50:34;;;;;;;34.17;28.15;;;12.90;99.90;;;;;;5092882;28;20027;-83
2021/05/14 02:53:00;;;;;;;40.15;30.10;;;12.90;99.90;;;;;;5075203;28;20550;-83
2021/05/14 02:55:26;;;;;;;38.17;30.73;;;12.90;99.90;;;;;;5055169;28;20060;-83
2021/05/14 02:57:53;;;;;;;37.70;30.55;;;12.90;99.90;;;;;;5058544;28;20024;-83
2021/05/14 03:00:20;;;;;;;34.83;29.92;;;12.90;99.90;;;;;;5093023;28;20063;-83
2021/05/14 03:02:46;;;;;;;37.65;30.65;;;12.90;99.90;;;;;;5074825;28;20028;-83
2021/05/14 03:05:12;;;;;;;39.38;30.42;;;12.90;99.90;;;;;;5049336;22;20045;-86
2021/05/14 03:07:37;;;;;;;40.80;31.75;;;12.90;99.90;;;;;;5049188;28;20485;-86
2021/05/14 03:10:05;;;;;;;42.75;31.70;;;12.90;99.90;;;;;;5052923;28;20031;-86
2021/05/14 03:12:30;;;;;;;39.55;31.38;;;12.90;99.90;;;;;;5055135;28;20028;-87
2021/05/14 03:14:56;;;;;;;39.72;31.27;;;12.90;99.90;;;;;;5053155;28;20031;-85
2021/05/14 03:17:22;;;;;;;41.15;31.55;;;12.90;99.90;;;;;;5055138;28;20036;-86
2021/05/14 03:19:47;;;;;;;39.30;30.95;;;12.90;99.90;;;;;;5058876;28;20414;-87
2021/05/14 03:22:13;;;;;;;35.78;28.15;;;12.80;99.90;;;;;;5073132;28;20032;-86
2021/05/14 03:24:39;;;;;;;35.05;27.92;;;12.80;99.90;;;;;;5055070;28;20393;-87
2021/05/14 03:27:05;;;;;;;35.67;27.70;;;12.70;99.90;;;;;;5055063;28;20036;-87
2021/05/14 03:29:30;;;;;;;38.00;28.48;;;12.70;99.90;;;;;;5072987;28;20447;-85
2021/05/14 03:31:56;;;;;;;39.78;29.05;;;12.70;99.90;;;;;;5055125;28;20028;-87
2021/05/14 03:34:22;;;;;;;38.03;27.17;;;12.70;99.90;;;;;;5045236;28;20146;-86
2021/05/14 03:36:47;;;;;;;36.35;26.83;;;12.60;99.90;;;;;;5054767;28;20056;-87
2021/05/14 03:39:15;;;;;;;36.88;28.73;;;12.60;99.90;;;;;;5038326;28;20509;-86
2021/05/14 03:41:47;;;;;;;42.25;31.73;;;12.60;99.90;;;;;;5055060;28;20033;-86
2021/05/14 03:44:12;;;;;;;43.97;31.50;;;12.50;99.90;;;;;;5055539;28;20077;-86
2021/05/14 03:46:38;;;;;;;46.05;31.27;;;12.50;99.90;;;;;;5054325;28;20115;-86
2021/05/14 03:49:04;;;;;;;41.60;29.70;;;12.50;99.90;;;;;;5054631;28;20113;-86
2021/05/14 03:51:30;;;;;;;45.53;31.58;;;12.40;99.90;;;;;;5054660;28;20027;-86
2021/05/14 03:53:56;;;;;;;43.42;31.05;;;12.50;99.90;;;;;;5048030;28;20115;-86
2021/05/14 03:56:22;;;;;;;38.70;29.45;;;12.40;99.90;;;;;;5054526;28;20029;-86
2021/05/14 03:58:47;;;;;;;39.15;29.10;;;12.40;99.90;;;;;;5046472;28;20029;-86
2021/05/14 04:01:13;;;;;;;37.00;27.67;;;12.40;99.90;;;;;;5054550;28;20052;-87
2021/05/14 04:03:39;;;;;;;39.45;27.52;;;12.30;99.90;;;;;;5054266;28;20339;-87
2021/05/14 04:06:05;;;;;;;36.90;27.45;;;12.30;99.90;;;;;;5070821;28;20039;-86
2021/05/14 04:08:31;;;;;;;39.60;27.42;;;12.40;99.90;;;;;;5037907;28;20032;-87
2021/05/14 04:11:23;;;;;;;40.35;27.88;;;12.40;99.90;;;;;;5054632;28;20040;-87
2021/05/14 04:16:33;;;;;;;39.58;28.98;;;12.40;99.90;;;;;;5072312;28;20051;-86
2021/05/14 04:18:59;;;;;;;45.35;30.10;;;12.40;99.90;;;;;;5034341;28;20044;-86
2021/05/14 04:21:26;;;;;;;45.58;30.60;;;12.40;99.90;;;;;;5032823;28;20063;-85
2021/05/14 04:23:52;;;;;;;43.92;30.35;;;12.40;99.90;;;;;;5054722;28;20039;-86
2021/05/14 04:26:18;;;;;;;44.45;30.83;;;12.40;99.90;;;;;;5044121;28;20082;-87
2021/05/14 04:28:43;;;;;;;45.70;31.23;;;12.40;99.90;;;;;;5051622;28;20532;-87
2021/05/14 04:31:09;;;;;;;47.83;31.15;;;12.40;99.90;;;;;;5054387;28;20021;-86
2021/05/14 04:33:35;;;;;;;43.65;29.92;;;12.40;99.90;;;;;;5054751;28;20070;-87
2021/05/14 04:36:00;;;;;;;43.42;30.00;;;12.40;99.90;;;;;;5054214;28;20025;-86
2021/05/14 04:38:26;;;;;;;43.97;29.40;;;12.40;99.90;;;;;;5037530;28;20025;-86
2021/05/14 04:40:51;;;;;;;45.53;29.83;;;12.40;99.90;;;;;;5047984;28;20029;-87
2021/05/14 04:43:20;;;;;;;39.65;27.83;;;12.40;99.90;;;;;;5054365;28;20060;-87
2021/05/14 04:45:46;;;;;;;51.58;30.45;;;12.40;99.90;;;;;;5054423;28;20016;-88
2021/05/14 04:48:11;;;;;;;45.20;29.50;;;12.40;99.90;;;;;;5037646;28;20036;-87
2021/05/14 04:50:38;;;;;;;50.30;32.90;;;12.50;99.90;;;;;;5034422;28;20025;-87
2021/05/14 04:53:09;;;;;;;54.28;33.55;;;12.40;99.90;;;;;;5054171;28;20028;-86
2021/05/14 04:55:35;;;;;;;;;;;12.40;99.90;;;;;;5038201;28;20033;-87
2021/05/14 04:58:01;;;;;;;60.20;34.55;;;12.40;99.90;;;;;;5033834;28;20414;-87
2021/05/14 05:00:27;;;;;;;67.45;37.67;;;12.40;99.90;;;;;;5037651;28;20031;-87
2021/05/14 05:02:53;;;;;;;57.40;33.75;;;12.30;99.90;;;;;;5037410;28;20036;-87
2021/05/14 05:05:19;;;;;;;65.68;36.95;;;12.30;99.90;;;;;;5053865;28;20103;-86
2021/05/14 05:07:45;;;;;;;65.82;36.13;;;12.30;99.90;;;;;;5034892;28;20143;-87
2021/05/14 05:10:12;;;;;;;61.75;34.63;;;12.30;99.90;;;;;;5040636;28;20502;-87
2021/05/14 05:12:38;;;;;;;69.13;37.53;;;12.30;99.90;;;;;;5047085;28;20461;-87
2021/05/14 05:15:04;;;;;;;67.18;36.42;;;12.30;99.90;;;;;;5057585;28;20023;-87
2021/05/14 05:17:30;;;;;;;74.43;40.42;;;12.30;99.90;;;;;;5057746;28;20077;-87
2021/05/14 05:19:56;;;;;;;81.97;41.25;;;12.30;99.90;;;;;;5055286;28;20029;-86
2021/05/14 05:22:22;;;;;;;69.28;38.72;;;12.30;99.90;;;;;;5057534;28;20033;-87
2021/05/14 05:24:48;;;;;;;69.22;37.13;;;12.30;99.90;;;;;;5057516;28;20029;-87
2021/05/14 05:27:15;;;;;;;83.72;42.17;;;12.30;99.90;;;;;;5057263;28;20089;-87
2021/05/14 05:29:40;;;;;;;76.57;39.47;;;12.20;99.90;;;;;;5057330;28;20025;-87
2021/05/14 05:32:06;;;;;;;64.07;35.55;;;12.20;99.90;;;;;;5056847;28;20047;-87
2021/05/14 05:34:33;;;;;;;68.57;36.25;;;12.20;99.90;;;;;;5075272;28;20036;-87
2021/05/14 05:36:59;;;;;;;76.95;40.92;;;12.20;99.90;;;;;;5040467;28;20487;-86
2021/05/14 05:39:25;;;;;;;71.82;37.95;;;12.20;99.90;;;;;;5056925;28;20385;-86
2021/05/14 05:41:50;;;;;;;66.55;35.83;;;12.20;99.90;;;;;;5056918;28;20020;-87
2021/05/14 05:44:16;;;;;;;64.30;34.90;;;12.30;99.90;;;;;;5057200;28;20399;-87
2021/05/14 05:46:42;;;;;;;59.35;34.38;;;12.20;99.90;;;;;;5047846;28;20021;-87
2021/05/14 05:49:07;;;;;;;51.60;31.17;;;12.30;99.90;;;;;;5052819;28;20029;-87
2021/05/14 05:51:33;;;;;;;52.83;30.90;;;12.30;99.90;;;;;;5044471;28;20025;-87
2021/05/14 05:53:59;;;;;;;44.72;27.65;;;12.40;99.90;;;;;;5046642;28;20386;-86
2021/05/14 05:56:25;;;;;;;43.00;27.20;;;12.40;99.90;;;;;;5056561;28;20067;-87
2021/05/14 05:58:52;;;;;;;37.72;25.48;;;12.40;99.90;;;;;;5074672;28;20017;-86
2021/05/14 06:01:17;;;;;;;39.42;26.13;;;12.50;99.90;;;;;;5053674;28;20033;-86
2021/05/14 06:03:43;;;;;;;38.78;24.08;;;12.50;99.90;;;;;;5035874;28;20037;-87
2021/05/14 06:06:09;;;;;;;34.90;22.33;;;12.50;99.90;;;;;;5038277;28;20032;-87
2021/05/14 06:08:35;;;;;;;39.33;24.20;;;12.60;99.90;;;;;;5044413;28;20021;-86
2021/05/14 06:11:02;;;;;;;43.95;25.60;;;12.60;99.90;;;;;;5056579;28;20039;-87
2021/05/14 06:13:28;;;;;;;47.22;26.98;;;12.60;99.90;;;;;;5039895;28;20021;-87
2021/05/14 06:16:09;;;;;;;47.33;26.02;;;12.60;99.90;;;;;;5044821;28;20036;-87
2021/05/14 06:18:40;;;;;;;48.00;26.95;;;12.60;99.90;;;;;;5055814;28;20032;-87
2021/05/14 06:21:06;;;;;;;44.40;24.95;;;12.70;99.90;;;;;;5056768;28;20020;-86
2021/05/14 06:23:32;;;;;;;45.78;25.88;;;12.70;99.90;;;;;;5041012;28;20141;-87
2021/05/14 06:25:58;;;;;;;48.55;26.95;;;12.70;99.90;;;;;;5037075;28;20064;-87
2021/05/14 06:28:25;;;;;;;47.33;27.38;;;12.80;99.90;;;;;;5039992;28;20565;-87
2021/05/14 06:30:51;;;;;;;46.47;26.73;;;12.80;99.90;;;;;;5037177;28;20036;-86
2021/05/14 06:33:17;;;;;;;53.25;29.13;;;12.80;99.90;;;;;;5030825;28;20048;-86
2021/05/14 06:35:44;;;;;;;46.88;26.10;;;12.80;99.90;;;;;;5068690;28;20021;-87
2021/05/14 06:38:10;;;;;;;49.40;27.10;;;12.80;99.90;;;;;;5063461;28;20026;-87
2021/05/14 06:40:36;;;;;;;44.45;26.50;;;12.80;99.90;;;;;;5053091;28;20036;-86
2021/05/14 06:43:02;;;;;;;46.97;26.98;;;12.80;99.90;;;;;;5067955;28;20028;-86
2021/05/14 06:45:28;;;;;;;48.67;26.90;;;12.80;99.90;;;;;;5084176;28;20077;-87
2021/05/14 06:48:02;;;;;;;42.58;25.85;;;12.80;99.90;;;;;;5043726;28;20175;-86
2021/05/14 06:50:28;;;;;;;47.00;27.63;;;12.80;99.90;;;;;;5071424;28;20055;-86
2021/05/14 06:52:54;;;;;;;45.55;25.42;;;12.80;99.90;;;;;;5057958;28;20033;-87
2021/05/14 06:55:19;;;;;;;46.92;25.52;;;12.80;99.90;;;;;;5041861;28;20139;-85
2021/05/14 06:57:45;;;;;;;48.40;26.83;;;12.80;99.90;;;;;;5040801;28;20047;-85
2021/05/14 07:00:11;;;;;;;45.22;26.27;;;12.80;99.90;;;;;;5063210;28;20074;-86
2021/05/14 07:02:37;;;;;;;46.33;26.98;;;12.80;99.90;;;;;;5038167;28;20479;-86
2021/05/14 07:05:03;;;;;;;47.78;27.92;;;12.80;99.90;;;;;;5023876;28;20051;-86
2021/05/14 07:07:31;;;;;;;47.00;28.50;;;12.80;99.90;;;;;;5050818;28;20482;-86
2021/05/14 07:09:56;;;;;;;46.50;28.70;;;12.80;99.90;;;;;;5044640;28;20529;-85
2021/05/14 07:12:22;;;;;;;48.25;29.00;;;12.80;99.90;;;;;;5085213;28;20032;-86
2021/05/14 07:14:48;;;;;;;46.00;28.73;;;12.80;99.90;;;;;;5068532;28;20020;-85
2021/05/14 07:17:14;;;;;;;46.08;28.33;;;12.80;99.90;;;;;;5048788;28;20546;-85
2021/05/14 07:19:41;;;;;;;38.60;25.75;;;12.80;99.90;;;;;;5041682;28;20036;-85
2021/05/14 07:22:07;;;;;;;46.17;28.35;;;12.90;99.90;;;;;;5059252;28;20032;-85
2021/05/14 07:24:32;;;;;;;43.85;26.38;;;12.90;99.90;;;;;;5046344;28;20093;-86
2021/05/14 07:26:59;;;;;;;41.28;26.25;;;12.90;99.90;;;;;;5048963;28;20047;-85
2021/05/14 07:29:26;;;;;;;38.78;24.88;;;12.90;99.90;;;;;;5042514;28;20100;-85
2021/05/14 07:31:51;;;;;;;36.80;25.13;;;12.90;99.90;;;;;;5065289;28;20016;-86
2021/05/14 07:34:17;;;;;;;39.85;25.73;;;13.00;99.90;;;;;;5034841;28;20112;-86
2021/05/14 07:36:43;;;;;;;41.13;26.60;;;13.00;99.90;;;;;;5045531;28;20103;-86
2021/05/14 07:39:08;;;;;;;39.67;26.67;;;13.00;99.90;;;;;;5038223;28;20424;-86
2021/05/14 07:41:34;;;;;;;42.03;26.90;;;13.00;99.90;;;;;;5037867;28;20031;-86
2021/05/14 07:43:59;;;;;;;43.58;28.15;;;13.10;99.90;;;;;;5037774;28;20028;-86
2021/05/14 07:46:25;;;;;;;41.63;26.92;;;13.10;99.90;;;;;;5037489;28;20020;-86
2021/05/14 07:48:52;;;;;;;42.72;27.00;;;13.10;99.90;;;;;;5039124;28;20466;-86
2021/05/14 07:51:18;;;;;;;45.13;27.35;;;13.10;99.90;;;;;;5038021;28;20025;-86
2021/05/14 07:53:43;;;;;;;47.10;28.50;;;13.20;99.90;;;;;;5071939;28;20382;-86
2021/05/14 07:56:09;;;;;;;46.08;28.38;;;13.20;99.90;;;;;;5033147;28;20044;-86
2021/05/14 07:58:35;;;;;;;45.10;29.73;;;13.20;99.90;;;;;;5034365;28;20039;-86
2021/05/14 08:01:01;;;;;;;50.17;30.67;;;13.20;99.90;;;;;;5053835;28;20055;-86
2021/05/14 08:03:27;;;;;;;46.85;31.48;;;13.30;99.90;;;;;;5055216;28;20017;-87
2021/05/14 08:05:52;;;;;;;45.33;31.25;;;13.30;99.90;;;;;;5073432;28;20045;-87
2021/05/14 08:08:19;;;;;;;43.47;28.38;;;13.30;99.90;;;;;;5061560;28;20063;-87
2021/05/14 08:10:46;;;;;;;45.58;29.98;;;13.30;99.90;;;;;;5037488;28;20066;-88
2021/05/14 08:13:14;;;;;;;42.72;30.88;;;13.40;99.90;;;;;;5034764;28;20029;-85
2021/05/14 08:15:40;;;;;;;44.05;31.20;;;13.40;99.90;;;;;;5035554;28;20020;-86
2021/05/14 08:18:06;;;;;;;47.42;33.83;;;13.40;99.90;;;;;;5034532;28;20033;-86
2021/05/14 08:20:32;;;;;;;48.88;34.08;;;13.40;99.90;;;;;;5051241;28;20025;-86
2021/05/14 08:22:58;;;;;;;49.47;34.50;;;13.40;99.90;;;;;;5072125;28;20036;-86
2021/05/14 08:25:23;;;;;;;45.28;31.40;;;13.40;99.90;;;;;;5037466;28;20398;-86
2021/05/14 08:27:49;;;;;;;42.65;31.17;;;13.40;99.90;;;;;;5035173;28;20490;-86
2021/05/14 08:30:15;;;;;;;40.20;28.75;;;13.50;99.90;;;;;;5037231;28;20119;-86
2021/05/14 08:32:41;;;;;;;41.88;31.48;;;13.50;99.90;;;;;;5054118;28;20020;-86
2021/05/14 08:35:09;;;;;;;43.25;29.42;;;13.40;99.90;;;;;;5053822;28;20032;-86
2021/05/14 08:37:36;;;;;;;42.08;29.23;;;13.50;99.90;;;;;;5061929;28;20032;-86
2021/05/14 08:40:04;;;;;;;40.40;28.05;;;13.50;99.90;;;;;;5035807;28;20028;-86
2021/05/14 08:42:30;;;;;;;39.65;28.10;;;13.50;99.90;;;;;;5037098;28;20481;-86
2021/05/14 08:44:56;;;;;;;37.85;27.33;;;13.50;99.90;;;;;;5036393;28;20056;-87
2021/05/14 08:47:23;;;;;;;38.28;26.08;;;13.50;99.90;;;;;;5038256;28;20037;-88
2021/05/14 08:49:49;;;;;;;40.50;27.48;;;13.60;99.90;;;;;;5040936;28;20008;-89
2021/05/14 08:52:16;;;;;;;38.65;26.63;;;13.60;99.90;;;;;;5038799;28;20171;-87
2021/05/14 08:54:45;;;;;;;40.45;26.15;;;13.60;99.90;;;;;;5075278;28;20497;-87
2021/05/14 08:57:11;;;;;;;38.40;26.52;;;13.70;99.90;;;;;;5049121;28;20029;-86
2021/05/14 08:59:38;;;;;;;40.15;27.25;;;13.70;99.90;;;;;;5054396;28;20028;-86
2021/05/14 09:02:04;;;;;;;41.00;27.65;;;13.70;99.90;;;;;;5058186;28;20051;-86
2021/05/14 09:04:32;;;;;;;43.90;28.08;;;13.70;99.90;;;;;;5057036;28;20036;-86
2021/05/14 09:06:58;;;;;;;41.70;27.90;;;13.80;99.90;;;;;;5043107;28;20024;-87
2021/05/14 09:09:23;;;;;;;42.03;28.83;;;13.80;99.90;;;;;;5074664;28;20082;-86
2021/05/14 09:11:53;;;;;;;44.10;29.35;;;13.80;99.90;;;;;;5041819;28;20107;-86
2021/05/14 09:14:47;;;;;;;38.70;27.25;;;13.90;99.90;;;;;;5059124;28;20025;-87
2021/05/14 09:17:18;;;;;;;38.20;26.88;;;13.90;99.90;;;;;;5058015;28;20078;-86
2021/05/14 09:19:46;;;;;;;42.30;28.40;;;13.90;99.90;;;;;;5061404;28;20477;-87
2021/05/14 09:22:17;;;;;;;40.60;29.05;;;14.00;99.90;;;;;;5054278;28;20031;-87
2021/05/14 09:24:47;;;;;;;38.70;26.98;;;14.00;99.90;;;;;;5057701;28;20020;-85
2021/05/14 09:27:17;;;;;;;38.90;28.95;;;14.00;99.90;;;;;;5057420;28;20021;-86
2021/05/14 09:29:45;;;;;;;42.55;30.10;;;13.90;99.90;;;;;;5057391;28;20461;-86
2021/05/14 09:32:27;;;;;;;40.97;29.67;;;13.90;99.90;;;;;;5071678;28;20052;-87
2021/05/14 09:34:56;;;;;;;38.05;28.02;;;14.00;99.90;;;;;;5075521;28;20028;-85
2021/05/14 09:37:25;;;;;;;36.30;27.48;;;14.00;99.90;;;;;;5054140;28;20025;-86
2021/05/14 09:40:17;;;;;;;37.28;27.60;;;14.00;99.90;;;;;;5054958;28;20123;-86
2021/05/14 09:43:03;;;;;;;39.83;27.95;;;14.00;99.90;;;;;;5053373;28;20146;-86
2021/05/14 09:45:29;;;;;;;41.25;28.27;;;14.00;99.90;;;;;;5026789;28;20053;-88
2021/05/14 09:50:55;;;;;;;42.17;29.90;;;14.00;99.90;;;;;;5067726;22;20126;-84
2021/05/14 09:53:21;;;;;;;42.00;30.63;;;14.00;99.90;;;;;;5038455;28;20029;-83
2021/05/14 09:56:03;;;;;;;45.88;31.88;;;13.90;99.90;;;;;;5033944;28;20021;-84
2021/05/14 09:58:31;;;;;;;40.67;30.15;;;13.90;99.90;;;;;;5038318;28;20052;-84
2021/05/14 10:00:57;;;;;;;38.25;28.50;;;14.00;99.90;;;;;;5039319;28;20033;-84
2021/05/14 10:03:30;;;;;;;39.65;28.58;;;13.90;99.90;;;;;;5019382;28;20048;-84
2021/05/14 10:05:56;;;;;;;39.58;27.90;;;13.90;99.90;;;;;;5025456;28;20025;-84
2021/05/14 10:08:30;;;;;;;39.70;28.73;;;14.00;99.90;;;;;;5035947;28;20020;-83
2021/05/14 10:11:01;;;;;;;35.58;27.00;;;14.10;99.90;;;;;;5053321;28;20052;-84
2021/05/14 10:14:04;;;;;;;39.10;26.52;;;14.20;99.90;;;;;;5031647;28;20032;-85
2021/05/14 10:16:30;;;;;;;36.90;27.80;;;14.30;99.90;;;;;;5051678;28;20025;-85
2021/05/14 10:18:57;;;;;;;36.45;26.77;;;14.30;99.90;;;;;;5004797;28;20033;-84
2021/05/14 10:21:23;;;;;;;34.67;26.08;;;14.40;99.90;;;;;;5035756;28;20032;-84
2021/05/14 10:23:49;;;;;;;34.03;26.20;;;14.50;99.90;;;;;;5042495;28;20036;-85
2021/05/14 10:26:14;;;;;;;35.65;26.85;;;14.50;99.90;;;;;;5035472;28;20033;-85
2021/05/14 10:28:45;;;;;;;36.70;25.63;;;14.60;99.90;;;;;;5019715;28;20036;-86
2021/05/14 10:31:14;;;;;;;35.92;26.23;;;14.70;99.90;;;;;;5046881;28;20025;-87
2021/05/14 10:33:49;;;;;;;32.08;24.73;;;14.80;99.90;;;;;;5051886;28;20401;-85
2021/05/14 10:36:14;;;;;;;36.13;25.48;;;14.80;99.90;;;;;;5035487;28;20039;-86
2021/05/14 10:38:40;;;;;;;33.25;24.70;;;14.90;99.90;;;;;;5053518;28;20021;-86
2021/05/14 10:41:26;;;;;;;31.60;24.48;;;14.90;99.90;;;;;;5035690;28;20036;-85
2021/05/14 10:44:02;;;;;;;32.33;23.50;;;15.00;99.90;;;;;;5019943;28;20086;-84
2021/05/14 10:46:28;;;;;;;32.38;23.55;;;15.10;99.90;;;;;;5034421;28;20517;-86
2021/05/14 10:49:08;;;;;;;29.17;21.70;;;15.10;99.90;;;;;;5036106;28;20470;-85
2021/05/14 10:51:46;;;;;;;29.33;21.75;;;15.20;99.90;;;;;;5034937;28;20090;-86
2021/05/14 10:54:40;;;;;;;24.33;19.65;;;15.20;99.90;;;;;;5030798;28;20017;-86
2021/05/14 10:57:10;;;;;;;22.45;18.30;;;15.40;99.90;;;;;;5036819;28;20031;-86
2021/05/14 10:59:40;;;;;;;23.55;20.08;;;15.40;99.90;;;;;;5055427;28;20061;-86
2021/05/14 11:02:28;;;;;;;21.65;18.20;;;15.50;99.90;;;;;;5035145;28;20040;-85
2021/05/14 11:04:55;;;;;;;22.17;18.63;;;15.60;99.90;;;;;;5052824;28;20033;-86
2021/05/14 11:07:47;;;;;;;20.38;17.02;;;15.60;99.90;;;;;;5023736;28;20060;-85
2021/05/14 11:10:12;;;;;;;24.25;19.45;;;15.60;99.50;;;;;;5008804;28;20033;-86
2021/05/14 11:12:45;;;;;;;21.25;18.00;;;15.60;99.80;;;;;;5035421;28;20476;-86
2021/05/14 11:15:14;;;;;;;21.23;17.55;;;15.60;99.90;;;;;;5010272;28;20029;-85
2021/05/14 11:17:40;;;;;;;19.95;17.15;;;15.70;99.60;;;;;;5039692;28;20021;-85
2021/05/14 11:20:21;;;;;;;19.67;17.08;;;15.70;99.90;;;;;;5018457;28;20033;-86
2021/05/14 11:22:47;;;;;;;19.27;16.15;;;15.80;99.90;;;;;;5039460;28;20033;-86
2021/05/14 11:25:17;;;;;;;17.13;15.32;;;15.90;99.70;;;;;;5034920;28;20040;-85
2021/05/14 11:27:45;;;;;;;17.67;14.50;;;16.00;99.70;;;;;;5018866;28;20029;-85
2021/05/14 11:30:13;;;;;;;17.40;15.23;;;16.00;99.80;;;;;;4998729;28;20383;-86
2021/05/14 11:32:41;;;;;;;16.85;14.20;;;16.10;99.40;;;;;;5025234;28;20044;-86
2021/05/14 11:35:25;;;;;;;15.20;12.32;;;16.20;99.80;;;;;;5051340;28;20543;-86
2021/05/14 11:37:59;;;;;;;13.98;12.50;;;16.20;99.60;;;;;;5034712;28;20052;-86
2021/05/14 11:40:36;;;;;;;14.15;11.57;;;16.30;99.30;;;;;;5034496;28;20094;-86
2021/05/14 11:43:05;;;;;;;11.85;10.10;;;16.40;99.60;;;;;;5034464;28;20040;-86
2021/05/14 11:45:37;;;;;;;14.65;12.45;;;16.50;99.70;;;;;;5034357;28;20355;-86
2021/05/14 11:48:22;;;;;;;13.20;11.48;;;16.50;98.80;;;;;;5034623;28;20032;-86
2021/05/14 11:50:55;;;;;;;14.20;10.73;;;16.60;97.70;;;;;;5031273;28;20033;-86
2021/05/14 11:53:21;;;;;;;12.95;11.07;;;16.60;97.90;;;;;;5032876;28;20459;-87
2021/05/14 11:55:48;;;;;;;13.43;10.68;;;16.50;97.00;;;;;;5031239;28;20036;-86
2021/05/14 11:58:14;;;;;;;10.77;9.38;;;16.50;97.80;;;;;;5014882;28;20030;-85
2021/05/14 12:00:45;;;;;;;10.95;9.05;;;16.50;97.80;;;;;;5031027;28;20040;-85
2021/05/14 12:03:13;;;;;;;10.60;9.50;;;16.50;98.40;;;;;;5031180;28;20489;-85
2021/05/14 12:06:04;;;;;;;10.40;9.20;;;16.60;97.80;;;;;;5014463;28;20076;-85
2021/05/14 12:08:30;;;;;;;10.20;8.32;;;16.60;97.70;;;;;;5014601;28;20479;-85
2021/05/14 12:11:10;;;;;;;9.43;8.48;;;16.70;98.20;;;;;;5030878;28;20029;-86
2021/05/14 12:13:41;;;;;;;10.10;8.50;;;16.80;98.20;;;;;;5030985;28;20070;-85
2021/05/14 12:16:07;;;;;;;;;;;16.80;97.80;;;;;;5032517;28;20045;-84
2021/05/14 12:18:47;;;;;;;8.10;7.25;;;16.90;96.40;;;;;;5047297;28;19908;-84
2021/05/14 12:21:33;;;;;;;8.52;7.63;;;16.90;97.40;;;;;;5032804;28;20019;-85
2021/05/14 12:24:11;;;;;;;9.05;7.80;;;17.00;97.30;;;;;;5034981;28;20060;-85
2021/05/14 12:26:38;;;;;;;9.32;7.22;;;17.00;97.40;;;;;;5010961;28;20025;-85
2021/05/14 12:29:06;;;;;;;8.95;7.50;;;17.00;96.70;;;;;;5028500;28;20033;-88
2021/05/14 12:31:32;;;;;;;8.10;7.30;;;17.00;96.20;;;;;;5020272;28;20041;-88
2021/05/14 12:34:08;;;;;;;8.25;7.07;;;17.00;96.90;;;;;;5037263;28;20463;-88
2021/05/14 12:36:35;;;;;;;7.50;6.57;;;17.10;96.60;;;;;;5052373;28;20550;-85
2021/05/14 12:39:10;;;;;;;7.43;6.43;;;17.10;96.20;;;;;;5034782;28;20488;-86